Time;durP1;ratioP1;P1;durP2;ratioP2;P2;SDS_P1;SDS_P2;PMS_P1;PMS_P2;Temp;Humidity;BMP_temperature;BMP_pressure;BME280_temperature;BME280_humidity;BME280_pressure;Samples;Min_cycle;Max_cycle;Signal;HPM_P1;HPM_P2
2021/03/07 00:00:24;;;;;;;7.65;4.45;;;;;;;2.43;77.46;100340.09;4801397;29;20035;-74
2021/03/07 00:02:50;;;;;;;9.85;4.32;;;;;;;2.39;77.04;100350.22;4806325;29;20117;-74
2021/03/07 00:05:17;;;;;;;7.60;4.63;;;;;;;2.38;77.25;100348.59;4806722;29;20051;-74
2021/03/07 00:07:46;;;;;;;7.18;4.45;;;;;;;2.34;77.33;100344.72;4806308;29;20039;-75
2021/03/07 00:10:15;;;;;;;8.48;4.75;;;;;;;2.31;77.61;100338.00;4809937;29;20037;-75
2021/03/07 00:12:41;;;;;;;6.50;4.38;;;;;;;2.31;78.04;100331.91;4824515;29;20083;-75
2021/03/07 00:15:09;;;;;;;8.85;5.03;;;;;;;2.31;77.87;100342.47;4810581;29;20478;-75
2021/03/07 00:17:35;;;;;;;9.00;5.68;;;;;;;2.29;77.57;100332.06;4824588;29;20511;-75
2021/03/07 00:20:01;;;;;;;10.10;5.45;;;;;;;2.26;78.17;100329.81;4822236;29;20042;-75
2021/03/07 00:22:26;;;;;;;7.38;4.72;;;;;;;2.29;78.05;100329.44;4824340;29;20129;-76
2021/03/07 00:24:52;;;;;;;8.63;4.78;;;;;;;2.29;78.08;100323.34;4818486;29;20061;-74
2021/03/07 00:27:18;;;;;;;10.43;4.90;;;;;;;2.31;78.27;100319.50;4805903;29;20049;-74
2021/03/07 00:29:44;;;;;;;7.45;5.18;;;;;;;2.34;77.89;100323.59;4814035;29;20066;-75
2021/03/07 00:32:10;;;;;;;10.10;5.88;;;;;;;2.35;78.04;100326.03;4824341;29;20069;-75
2021/03/07 00:34:35;;;;;;;7.38;4.70;;;;;;;2.37;77.63;100324.03;4805320;29;20034;-75
2021/03/07 00:37:01;;;;;;;9.50;5.38;;;;;;;2.35;77.71;100320.75;4805933;29;20054;-75
2021/03/07 00:39:26;;;;;;;7.82;5.00;;;;;;;2.37;77.91;100323.22;4807438;29;20095;-78
2021/03/07 00:41:52;;;;;;;9.65;5.53;;;;;;;2.38;77.82;100309.00;4808746;29;20102;-78
2021/03/07 00:44:18;;;;;;;9.93;6.05;;;;;;;2.44;77.73;100312.69;4824958;29;20638;-75
2021/03/07 00:46:46;;;;;;;8.25;4.60;;;;;;;2.49;77.83;100319.06;4810012;29;20083;-79
2021/03/07 00:49:12;;;;;;;10.38;5.38;;;;;;;2.52;78.00;100323.94;4809769;29;20033;-78
2021/03/07 00:51:38;;;;;;;9.38;5.95;;;;;;;2.55;77.96;100314.81;4809926;29;20171;-78
2021/03/07 00:54:04;;;;;;;10.30;5.68;;;;;;;2.56;77.63;100319.94;4811191;29;20033;-78
2021/03/07 00:56:29;;;;;;;8.60;5.68;;;;;;;2.60;77.56;100319.53;4810079;29;20033;-77
2021/03/07 00:58:55;;;;;;;8.35;5.35;;;;;;;2.59;78.28;100310.81;4824223;29;20039;-76
2021/03/07 01:01:21;;;;;;;11.45;5.95;;;;;;;2.60;77.68;100317.72;4808769;29;20049;-79
2021/03/07 01:03:47;;;;;;;9.90;6.32;;;;;;;2.64;77.79;100305.75;4808012;29;20031;-75
2021/03/07 01:06:12;;;;;;;10.77;5.78;;;;;;;2.68;77.38;100314.09;4805677;29;20054;-76
2021/03/07 01:08:38;;;;;;;11.90;6.80;;;;;;;2.64;76.82;100305.75;4805551;29;20041;-75
2021/03/07 01:11:04;;;;;;;11.35;6.28;;;;;;;2.66;76.74;100314.31;4805816;29;20034;-77
2021/03/07 01:13:30;;;;;;;10.05;5.78;;;;;;;2.67;77.69;100318.59;4816306;29;20034;-78
2021/03/07 01:15:55;;;;;;;12.55;6.03;;;;;;;2.67;77.37;100308.03;4808167;29;20417;-78
2021/03/07 01:18:21;;;;;;;12.68;7.50;;;;;;;2.60;77.49;100304.50;4809468;29;20030;-78
2021/03/07 01:20:46;;;;;;;11.18;6.70;;;;;;;2.62;77.62;100312.25;4824732;29;20087;-77
2021/03/07 01:23:16;;;;;;;11.60;5.78;;;;;;;2.64;77.34;100311.03;4825748;29;20040;-77
2021/03/07 01:25:42;;;;;;;11.48;6.78;;;;;;;2.63;77.32;100309.41;4824574;29;20109;-77
2021/03/07 01:28:08;;;;;;;11.48;6.80;;;;;;;2.62;77.27;100309.59;4824726;29;20117;-77
2021/03/07 01:30:38;;;;;;;12.05;6.80;;;;;;;2.60;77.26;100309.78;4814556;29;20031;-77
2021/03/07 01:33:05;;;;;;;16.23;6.93;;;;;;;2.60;77.44;100304.50;4806390;29;20053;-77
2021/03/07 01:35:32;;;;;;;9.93;5.97;;;;;;;2.62;77.53;100301.66;4811993;29;20070;-77
2021/03/07 01:37:57;;;;;;;15.15;7.28;;;;;;;2.62;77.39;100299.03;4806270;29;20095;-77
2021/03/07 01:40:26;;;;;;;12.70;7.28;;;;;;;2.65;77.47;100298.63;4790279;29;20023;-77
2021/03/07 01:42:55;;;;;;;13.07;7.03;;;;;;;2.70;77.50;100297.06;4806585;29;20039;-78
2021/03/07 01:45:26;;;;;;;16.23;8.45;;;;;;;2.74;77.26;100297.47;4807964;29;20133;-78
2021/03/07 01:47:57;;;;;;;12.95;6.68;;;;;;;2.79;77.49;100296.91;4815223;29;20031;-80
2021/03/07 01:50:27;;;;;;;10.98;6.68;;;;;;;2.84;77.03;100297.13;4809256;29;20058;-79
2021/03/07 01:52:53;;;;;;;12.30;6.70;;;;;;;2.87;77.14;100297.56;4809478;29;20125;-79
2021/03/07 01:55:24;;;;;;;12.38;6.60;;;;;;;2.96;76.60;100300.88;4813817;29;20035;-80
2021/03/07 01:57:57;;;;;;;10.18;6.18;;;;;;;3.00;76.67;100296.00;4791416;29;20031;-79
2021/03/07 02:00:22;;;;;;;15.35;7.47;;;;;;;3.06;76.65;100294.41;4816985;29;20022;-78
2021/03/07 02:02:48;;;;;;;13.77;7.80;;;;;;;3.03;76.58;100291.16;4808929;29;20032;-79
2021/03/07 02:05:16;;;;;;;12.63;7.20;;;;;;;3.03;76.26;100299.06;4808668;29;20041;-78
2021/03/07 02:07:42;;;;;;;9.55;6.03;;;;;;;3.02;76.13;100288.72;4808644;29;20023;-79
2021/03/07 02:10:11;;;;;;;10.95;6.88;;;;;;;3.03;75.18;100295.63;4807629;29;20098;-77
2021/03/07 02:12:38;;;;;;;12.63;7.20;;;;;;;2.98;75.17;100295.38;4823127;29;20042;-77
2021/03/07 02:15:09;;;;;;;16.52;7.80;;;;;;;2.92;75.22;100289.06;4806139;29;20049;-77
2021/03/07 02:17:36;;;;;;;11.15;6.90;;;;;;;2.90;75.41;100291.06;4811537;29;20050;-77
2021/03/07 02:20:03;;;;;;;12.70;7.30;;;;;;;2.91;75.61;100294.56;4821836;29;20192;-76
2021/03/07 02:22:35;;;;;;;11.50;6.95;;;;;;;2.87;75.37;100284.34;4822998;29;20038;-76
2021/03/07 02:25:07;;;;;;;11.95;6.80;;;;;;;2.87;75.49;100288.84;4822508;29;20043;-77
2021/03/07 02:27:35;;;;;;;12.02;6.85;;;;;;;2.85;75.35;100283.72;4822981;29;20034;-77
2021/03/07 02:30:01;;;;;;;11.15;6.32;;;;;;;2.81;75.02;100284.34;4811539;29;20043;-76
2021/03/07 02:32:29;;;;;;;10.32;6.07;;;;;;;2.75;74.98;100279.78;4799395;29;20083;-75
2021/03/07 02:34:59;;;;;;;11.95;6.68;;;;;;;2.69;74.68;100281.41;4788505;29;20449;-76
2021/03/07 02:37:27;;;;;;;11.40;6.47;;;;;;;2.64;74.74;100273.25;4788352;29;20646;-77
2021/03/07 02:39:53;;;;;;;10.63;6.50;;;;;;;2.57;74.65;100267.91;4806250;29;20038;-77
2021/03/07 02:42:21;;;;;;;7.60;5.05;;;;;;;2.54;74.41;100268.31;4805083;29;20031;-77
2021/03/07 02:44:53;;;;;;;11.77;6.35;;;;;;;2.51;74.54;100272.13;4812264;29;20147;-77
2021/03/07 02:47:21;;;;;;;9.68;5.82;;;;;;;2.50;74.30;100286.38;4802409;29;20049;-77
2021/03/07 02:49:47;;;;;;;10.75;6.28;;;;;;;2.52;74.23;100276.41;4822136;29;20041;-76
2021/03/07 02:52:13;;;;;;;13.88;7.00;;;;;;;2.58;74.37;100279.31;4822488;29;20085;-75
2021/03/07 02:54:41;;;;;;;7.53;5.68;;;;;;;2.61;74.03;100274.44;4824404;29;20030;-78
2021/03/07 02:57:07;;;;;;;10.82;5.82;;;;;;;2.64;73.91;100268.78;4820998;29;20044;-77
2021/03/07 02:59:36;;;;;;;9.02;5.70;;;;;;;2.64;73.72;100271.41;4805120;29;20047;-78
2021/03/07 03:02:04;;;;;;;10.90;6.20;;;;;;;2.64;73.33;100270.63;4803153;29;20117;-78
2021/03/07 03:04:32;;;;;;;11.80;6.05;;;;;;;2.63;73.55;100271.63;4820546;29;20042;-78
2021/03/07 03:07:00;;;;;;;8.68;5.78;;;;;;;2.65;73.46;100274.84;4790184;29;20041;-78
2021/03/07 03:09:28;;;;;;;10.90;6.78;;;;;;;2.66;73.31;100273.84;4810786;29;20039;-78
2021/03/07 03:11:57;;;;;;;10.77;6.90;;;;;;;2.64;73.87;100274.06;4804631;29;20073;-78
2021/03/07 03:14:23;;;;;;;10.43;5.78;;;;;;;2.70;74.15;100281.19;4822077;29;20053;-78
2021/03/07 03:16:52;;;;;;;14.25;6.53;;;;;;;2.72;73.75;100276.56;4805898;29;20045;-76
2021/03/07 03:19:21;;;;;;;13.15;7.22;;;;;;;2.71;73.81;100279.38;4804772;29;20404;-76
2021/03/07 03:21:47;;;;;;;10.38;6.97;;;;;;;2.79;73.90;100283.69;4809901;29;20041;-75
2021/03/07 03:24:13;;;;;;;14.18;7.43;;;;;;;2.84;74.02;100281.28;4819305;29;20520;-78
2021/03/07 03:26:39;;;;;;;14.05;7.03;;;;;;;2.87;73.83;100278.28;4804628;29;20117;-76
2021/03/07 03:29:06;;;;;;;10.73;6.78;;;;;;;2.90;74.56;100280.50;4800647;29;20409;-76
2021/03/07 03:31:33;;;;;;;15.90;7.63;;;;;;;2.90;74.56;100277.88;4823111;29;20421;-76
2021/03/07 03:34:01;;;;;;;11.80;6.65;;;;;;;2.92;74.21;100281.13;4791132;29;20114;-77
2021/03/07 03:36:27;;;;;;;10.40;6.32;;;;;;;2.95;74.09;100286.03;4807844;29;20034;-76
2021/03/07 03:38:55;;;;;;;10.38;6.45;;;;;;;2.99;74.43;100297.84;4807901;29;20043;-76
2021/03/07 03:41:23;;;;;;;14.48;7.45;;;;;;;3.02;74.33;100288.72;4807886;29;20034;-77
2021/03/07 03:43:52;;;;;;;12.35;7.28;;;;;;;3.06;74.01;100291.78;4808326;29;20039;-78
2021/03/07 03:46:20;;;;;;;11.32;6.90;;;;;;;3.07;74.01;100285.50;4812106;29;20036;-78
2021/03/07 03:48:52;;;;;;;14.57;8.30;;;;;;;3.07;74.28;100288.13;4811121;29;20050;-78
2021/03/07 03:51:19;;;;;;;14.02;6.90;;;;;;;3.09;74.14;100286.09;4807180;29;20036;-78
2021/03/07 03:53:46;;;;;;;13.05;6.68;;;;;;;3.08;73.89;100282.63;4811344;29;20026;-79
2021/03/07 03:56:16;;;;;;;12.55;6.38;;;;;;;3.13;73.41;100288.16;4810338;29;20035;-75
2021/03/07 03:58:43;;;;;;;16.15;7.35;;;;;;;3.15;73.33;100280.84;4825077;29;20481;-77
2021/03/07 04:01:10;;;;;;;16.27;7.47;;;;;;;3.16;73.13;100286.94;4820487;29;20062;-77
2021/03/07 04:03:37;;;;;;;14.57;7.07;;;;;;;3.18;73.35;100295.50;4808575;29;20030;-77
2021/03/07 04:06:04;;;;;;;14.05;7.00;;;;;;;3.15;72.72;100277.38;4807847;29;20068;-76
2021/03/07 04:08:29;;;;;;;12.15;7.50;;;;;;;3.14;73.05;100287.13;4824366;29;20045;-75
2021/03/07 04:10:57;;;;;;;13.85;7.28;;;;;;;3.15;72.80;100278.19;4791298;29;20030;-75
2021/03/07 04:13:26;;;;;;;14.43;7.20;;;;;;;3.16;72.77;100276.38;4790793;29;20038;-76
2021/03/07 04:15:54;;;;;;;12.88;7.50;;;;;;;3.18;72.88;100277.00;4823235;29;20046;-77
2021/03/07 04:18:23;;;;;;;17.27;8.18;;;;;;;3.22;72.49;100280.06;4826059;29;20046;-77
2021/03/07 04:20:50;;;;;;;15.32;8.25;;;;;;;3.25;72.32;100283.13;4824868;29;20035;-75
2021/03/07 04:23:15;;;;;;;11.77;7.72;;;;;;;3.26;72.02;100281.28;4815614;29;20564;-76
2021/03/07 04:25:41;;;;;;;11.88;7.97;;;;;;;3.30;71.55;100285.19;4815982;29;20105;-75
2021/03/07 04:28:08;;;;;;;11.50;7.68;;;;;;;3.30;71.76;100277.25;4824218;29;20030;-74
2021/03/07 04:30:34;;;;;;;12.10;7.00;;;;;;;3.33;71.73;100279.50;4819196;29;20034;-74
2021/03/07 04:33:01;;;;;;;15.20;8.57;;;;;;;3.32;72.29;100283.97;4815720;29;20070;-74
2021/03/07 04:35:27;;;;;;;15.38;7.47;;;;;;;3.29;72.35;100279.06;4806732;29;20031;-75
2021/03/07 04:37:56;;;;;;;15.10;7.65;;;;;;;3.29;72.37;100275.63;4824041;29;20046;-75
2021/03/07 04:40:21;;;;;;;13.23;8.05;;;;;;;3.31;72.67;100274.41;4821187;29;20030;-78
2021/03/07 04:42:47;;;;;;;11.82;6.82;;;;;;;3.32;72.48;100275.22;4820783;29;20164;-78
2021/03/07 04:45:14;;;;;;;13.50;8.32;;;;;;;3.30;72.24;100264.84;4813540;29;20046;-78
2021/03/07 04:47:41;;;;;;;12.98;8.23;;;;;;;3.26;72.56;100263.59;4824590;29;20043;-78
2021/03/07 04:50:07;;;;;;;14.10;8.48;;;;;;;3.27;72.60;100269.69;4815297;29;20045;-79
2021/03/07 04:52:32;;;;;;;14.10;7.75;;;;;;;3.28;72.36;100263.41;4805836;29;20031;-78
2021/03/07 04:54:58;;;;;;;16.15;8.70;;;;;;;3.27;72.31;100259.97;4824109;29;20066;-79
2021/03/07 04:57:23;;;;;;;14.35;8.27;;;;;;;3.29;71.89;100271.13;4808823;29;20048;-79
2021/03/07 04:59:49;;;;;;;18.33;9.40;;;;;;;3.30;72.08;100271.97;4809286;29;20042;-79
2021/03/07 05:02:14;;;;;;;13.48;8.77;;;;;;;3.32;71.54;100270.75;4808742;29;20131;-79
2021/03/07 05:04:39;;;;;;;17.70;8.77;;;;;;;3.34;71.59;100266.09;4811438;29;20036;-78
2021/03/07 05:07:05;;;;;;;13.82;8.40;;;;;;;3.35;71.99;100275.63;4808257;29;20087;-79
2021/03/07 05:09:30;;;;;;;15.02;9.00;;;;;;;3.39;72.43;100277.88;4806781;29;20077;-77
2021/03/07 05:11:56;;;;;;;14.07;8.13;;;;;;;3.39;71.75;100275.25;4807670;29;20503;-78
2021/03/07 05:14:21;;;;;;;10.68;7.47;;;;;;;3.38;71.55;100285.00;4824821;29;20034;-77
2021/03/07 05:16:47;;;;;;;13.25;8.70;;;;;;;3.40;71.65;100282.16;4793937;29;20107;-77
2021/03/07 05:19:12;;;;;;;12.68;8.15;;;;;;;3.39;71.74;100273.41;4823817;29;20039;-77
2021/03/07 05:21:38;;;;;;;14.13;9.90;;;;;;;3.42;71.43;100285.41;4824726;29;20449;-76
2021/03/07 05:24:03;;;;;;;15.93;9.35;;;;;;;3.43;71.44;100273.81;4822316;29;20061;-78
2021/03/07 05:26:29;;;;;;;15.77;10.60;;;;;;;3.49;71.41;100275.66;4818089;29;20042;-78
2021/03/07 05:28:57;;;;;;;15.63;9.65;;;;;;;3.48;71.12;100282.00;4807801;29;20474;-79
2021/03/07 05:31:23;;;;;;;15.90;9.95;;;;;;;3.50;71.35;100287.88;4791014;29;20035;-79
2021/03/07 05:33:48;;;;;;;15.57;9.40;;;;;;;3.53;71.35;100295.44;4797992;29;20097;-79
2021/03/07 05:36:14;;;;;;;17.67;10.95;;;;;;;3.49;70.87;100295.03;4822137;29;20597;-78
2021/03/07 05:38:40;;;;;;;12.18;8.95;;;;;;;3.44;71.42;100286.03;4807953;29;20038;-78
2021/03/07 05:41:05;;;;;;;14.65;9.25;;;;;;;3.45;71.04;100290.31;4807101;29;20040;-77
2021/03/07 05:43:31;;;;;;;15.35;9.35;;;;;;;3.46;71.38;100298.03;4804030;29;20035;-77
2021/03/07 05:45:57;;;;;;;16.35;8.80;;;;;;;3.49;71.32;100297.66;4789535;29;20035;-76
2021/03/07 05:48:26;;;;;;;16.92;9.52;;;;;;;3.51;71.25;100302.75;4805515;29;20037;-76
2021/03/07 05:50:51;;;;;;;16.85;9.85;;;;;;;3.47;71.36;100299.69;4808754;29;20056;-76
2021/03/07 05:53:18;;;;;;;18.88;9.75;;;;;;;3.50;71.36;100309.06;4799086;29;20501;-77
2021/03/07 05:55:44;;;;;;;19.45;8.75;;;;;;;3.51;71.31;100310.69;4809714;29;20514;-77
2021/03/07 05:58:12;;;;;;;16.95;9.82;;;;;;;3.53;71.06;100311.31;4808623;29;20074;-76
2021/03/07 06:00:38;;;;;;;11.73;8.00;;;;;;;3.53;70.91;100308.66;4822407;29;20030;-76
2021/03/07 06:03:03;;;;;;;13.07;8.05;;;;;;;3.55;71.23;100306.63;4806557;29;20401;-76
2021/03/07 06:05:29;;;;;;;12.95;7.32;;;;;;;3.50;71.33;100296.66;4822653;29;20126;-76
2021/03/07 06:07:54;;;;;;;10.68;6.80;;;;;;;3.46;70.32;100308.63;4804594;29;20103;-76
2021/03/07 06:10:26;;;;;;;10.48;6.22;;;;;;;3.45;71.25;100307.00;4805381;29;20103;-77
2021/03/07 06:13:10;;;;;;;14.05;7.63;;;;;;;3.49;71.50;100299.47;4804504;29;20046;-78
2021/03/07 06:15:38;;;;;;;15.55;7.93;;;;;;;3.52;71.33;100301.75;4812235;29;20035;-79
2021/03/07 06:18:18;;;;;;;10.77;6.38;;;;;;;3.53;71.84;100300.72;4790897;29;20043;-78
2021/03/07 06:20:45;;;;;;;12.55;7.00;;;;;;;3.53;71.24;100300.72;4810639;29;20038;-77
2021/03/07 06:23:11;;;;;;;12.60;7.53;;;;;;;3.50;71.41;100301.13;4794056;29;20027;-79
2021/03/07 06:25:48;;;;;;;11.98;7.03;;;;;;;3.51;70.89;100300.09;4794960;29;20095;-74
2021/03/07 06:28:23;;;;;;;12.93;6.78;;;;;;;3.54;70.57;100291.78;4809285;29;20031;-76
2021/03/07 06:30:50;;;;;;;11.70;6.88;;;;;;;3.55;70.10;100298.69;4791425;29;20031;-75
2021/03/07 06:33:37;;;;;;;11.32;6.75;;;;;;;3.55;69.14;100290.75;4809669;29;20043;-76
2021/03/07 06:36:16;;;;;;;12.25;6.75;;;;;;;3.60;68.94;100295.44;4791241;29;20099;-72
2021/03/07 06:38:49;;;;;;;;;;;;;;;3.62;68.52;100290.78;4790571;29;20401;-73
2021/03/07 06:41:29;;;;;;;8.27;5.65;;;;;;;3.66;68.60;100290.19;4806220;29;19913;-73
2021/03/07 06:44:14;;;;;;;9.43;6.18;;;;;;;3.74;67.11;100298.97;4805340;29;20527;-76
2021/03/07 06:46:43;;;;;;;10.95;6.57;;;;;;;3.76;67.12;100291.63;4806455;29;20408;-77
2021/03/07 06:49:43;;;;;;;;;;;;;;;3.77;67.14;100288.78;4807742;29;20027;-81
2021/03/07 06:52:19;;;;;;;10.80;5.43;;;;;;;3.75;63.56;100290.81;4808697;29;19982;-78
2021/03/07 06:55:01;;;;;;;9.38;6.20;;;;;;;3.70;63.25;100293.25;4792636;29;20105;-79
2021/03/07 06:57:28;;;;;;;9.05;5.70;;;;;;;3.74;63.30;100288.38;4806603;29;20030;-77
2021/03/07 07:00:12;;;;;;;8.60;6.00;;;;;;;3.78;63.31;100290.41;4809995;29;20424;-82
2021/03/07 07:02:38;;;;;;;8.85;6.10;;;;;;;3.86;63.95;100289.41;4799414;29;20043;-80
2021/03/07 07:07:47;;;;;;;10.25;6.45;;;;;;;3.98;63.72;100285.16;4972251;24;20080;-80
2021/03/07 07:16:15;;;;;;;9.88;6.28;;;;;;;4.19;62.56;100272.75;4840068;29;20096;-79
2021/03/07 07:18:45;;;;;;;16.63;7.65;;;;;;;4.31;61.76;100279.06;4802766;29;20047;-78
2021/03/07 07:21:14;;;;;;;12.90;6.35;;;;;;;4.36;61.98;100275.81;4819657;29;20035;-78
2021/03/07 07:23:40;;;;;;;12.63;7.45;;;;;;;4.45;61.50;100268.47;4822240;29;20034;-78
2021/03/07 07:26:06;;;;;;;10.48;6.53;;;;;;;4.58;61.88;100267.66;4822057;29;20400;-77
2021/03/07 07:28:33;;;;;;;12.63;7.53;;;;;;;4.70;61.25;100266.00;4822325;29;20030;-76
2021/03/07 07:30:59;;;;;;;11.43;7.63;;;;;;;4.82;61.08;100276.75;4822731;29;20038;-80
2021/03/07 07:33:37;;;;;;;13.32;6.88;;;;;;;4.90;59.73;100273.88;4810361;29;20825;-78
2021/03/07 07:36:05;;;;;;;7.00;5.30;;;;;;;4.93;59.30;100272.66;4810504;29;20034;-80
2021/03/07 07:38:32;;;;;;;8.07;6.00;;;;;;;5.00;59.35;100268.16;4817379;29;20113;-78
2021/03/07 07:40:58;;;;;;;7.22;5.68;;;;;;;5.06;58.48;100263.84;4839316;29;20034;-78
2021/03/07 07:43:24;;;;;;;11.43;5.85;;;;;;;5.15;58.89;100256.47;4833693;29;20114;-78
2021/03/07 07:46:26;;;;;;;8.80;5.60;;;;;;;5.24;58.30;100258.69;4824700;29;20083;-81
2021/03/07 07:49:45;;;;;;;8.90;5.43;;;;;;;5.26;56.76;100255.81;4906256;24;20058;-81
2021/03/07 08:02:12;;;;;;;7.43;4.50;;;;;;;5.06;57.31;100248.75;5505761;24;20086;-82
2021/03/07 08:04:47;;;;;;;6.93;4.32;;;;;;;5.05;57.69;100254.28;4768529;30;20048;-81
2021/03/07 08:07:13;;;;;;;9.32;4.07;;;;;;;4.98;57.42;100254.31;4757711;29;20549;-80
2021/03/07 08:09:55;;;;;;;6.65;4.82;;;;;;;4.97;57.61;100255.31;4806307;29;20053;-81
2021/03/07 08:15:26;;;;;;;5.67;4.33;;;;;;;4.96;57.81;100248.41;5235918;23;21889;31
2021/03/07 08:18:39;;;;;;;11.15;5.05;;;;;;;5.01;58.28;100248.56;4818053;29;20063;-80
2021/03/07 08:21:06;;;;;;;7.82;5.30;;;;;;;5.05;57.43;100247.13;4841636;24;20055;-76
2021/03/07 08:23:59;;;;;;;9.55;4.68;;;;;;;5.13;57.21;100246.09;4788321;30;20108;-77
2021/03/07 08:26:27;;;;;;;8.55;5.60;;;;;;;5.10;56.63;100236.72;4801609;29;20039;-75
2021/03/07 08:28:53;;;;;;;7.55;4.63;;;;;;;5.14;56.16;100226.50;4788817;30;20066;-76
2021/03/07 08:31:18;;;;;;;5.90;4.38;;;;;;;5.21;56.54;100234.41;4788317;30;20058;-75
2021/03/07 08:33:44;;;;;;;8.13;4.25;;;;;;;5.31;56.36;100229.50;4788316;30;20031;-76
2021/03/07 08:36:26;;;;;;;8.60;4.38;;;;;;;5.47;56.85;100222.88;4788684;30;20031;-76
2021/03/07 08:38:54;;;;;;;9.65;4.30;;;;;;;5.64;56.43;100206.44;4789138;30;20078;-76
2021/03/07 08:41:32;;;;;;;9.13;3.92;;;;;;;5.83;55.81;100209.97;4789649;30;20047;-76
2021/03/07 08:43:59;;;;;;;23.30;11.27;;;;;;;5.98;56.16;100209.66;4789044;30;20047;-76
2021/03/07 08:46:39;;;;;;;7.90;5.53;;;;;;;6.09;55.29;100201.00;4789437;30;20035;-76
2021/03/07 08:49:10;;;;;;;9.48;5.65;;;;;;;6.20;55.73;100204.78;4789478;30;20039;-75
2021/03/07 08:51:37;;;;;;;8.57;5.50;;;;;;;6.23;55.64;100199.84;4789557;30;20039;-76
2021/03/07 08:54:09;;;;;;;9.90;5.68;;;;;;;6.35;55.87;100202.63;4789094;30;20114;-75
2021/03/07 08:56:38;;;;;;;9.68;5.55;;;;;;;6.41;55.14;100198.28;4789390;30;20035;-76
2021/03/07 08:59:05;;;;;;;12.30;5.00;;;;;;;6.46;55.01;100193.13;4789450;30;20035;-76
2021/03/07 09:01:31;;;;;;;6.50;4.72;;;;;;;6.51;54.48;100190.59;4789012;30;20095;-75
2021/03/07 09:04:01;;;;;;;7.20;5.20;;;;;;;6.54;54.35;100184.84;4788935;30;20035;-75
2021/03/07 09:06:31;;;;;;;9.02;4.95;;;;;;;6.55;53.58;100186.50;4789076;30;20181;-76
2021/03/07 09:09:20;;;;;;;7.93;5.28;;;;;;;6.55;53.69;100183.84;4788938;30;20043;-76
2021/03/07 09:11:46;;;;;;;8.18;6.03;;;;;;;6.57;53.55;100179.09;4772785;30;20035;-76
2021/03/07 09:14:11;;;;;;;7.43;5.03;;;;;;;6.51;52.87;100174.66;4788122;30;20039;-76
2021/03/07 09:16:42;;;;;;;6.75;5.68;;;;;;;6.49;53.54;100173.25;4788596;29;20035;-76
2021/03/07 09:19:31;;;;;;;11.40;5.93;;;;;;;6.50;54.12;100164.25;4789011;29;20046;-75
2021/03/07 09:22:21;;;;;;;8.50;5.38;;;;;;;6.54;54.43;100170.75;4803563;29;20061;-75
2021/03/07 09:24:59;;;;;;;7.35;4.72;;;;;;;6.55;51.72;100170.53;4806662;29;20030;-75
2021/03/07 09:27:27;;;;;;;7.07;4.43;;;;;;;6.53;52.00;100169.09;4806272;29;20035;-75
2021/03/07 09:29:59;;;;;;;9.13;5.43;;;;;;;6.52;52.12;100162.19;4806856;29;20031;-76
2021/03/07 09:32:46;;;;;;;6.28;4.30;;;;;;;6.50;51.22;100158.94;4804487;29;20027;-76
2021/03/07 09:35:39;;;;;;;4.57;4.07;;;;;;;6.47;52.59;100154.88;4804883;29;20027;-76
2021/03/07 09:38:08;;;;;;;13.00;6.43;;;;;;;6.53;52.13;100148.69;4805969;29;20045;-77
2021/03/07 09:40:42;;;;;;;8.27;5.55;;;;;;;6.64;52.55;100143.63;4807169;29;20041;-79
2021/03/07 09:43:13;;;;;;;9.77;5.95;;;;;;;6.67;52.23;100143.22;4826958;24;20058;-82
2021/03/07 09:45:47;;;;;;;10.23;5.72;;;;;;;6.72;52.70;100130.06;4790570;29;20116;-81
2021/03/07 09:48:14;;;;;;;17.27;7.35;;;;;;;6.85;51.50;100140.53;4789102;30;20046;-80
2021/03/07 09:50:40;;;;;;;14.82;7.45;;;;;;;6.97;51.38;100137.09;4777088;30;20031;-79
2021/03/07 09:53:06;;;;;;;8.10;5.60;;;;;;;7.00;49.28;100134.00;4784771;29;20035;-79
2021/03/07 09:55:34;;;;;;;6.30;4.68;;;;;;;7.07;48.51;100129.41;4786854;30;20035;-76
2021/03/07 09:58:05;;;;;;;8.93;5.65;;;;;;;7.15;49.35;100139.72;4780492;29;20126;-78
2021/03/07 10:00:34;;;;;;;8.18;6.03;;;;;;;7.15;49.66;100121.13;4787708;29;20118;-78
2021/03/07 10:03:00;;;;;;;8.68;6.15;;;;;;;7.23;49.95;100122.63;4768445;30;20031;-78
2021/03/07 10:05:26;;;;;;;13.40;7.32;;;;;;;7.35;50.25;100125.31;4769308;30;20506;-78
2021/03/07 10:07:52;;;;;;;32.25;13.70;;;;;;;7.40;48.22;100117.47;4784579;30;20035;-78
2021/03/07 10:10:23;;;;;;;11.63;7.78;;;;;;;7.45;48.16;100114.91;4786474;30;20496;-78
2021/03/07 10:12:56;;;;;;;12.80;7.53;;;;;;;7.57;48.97;100109.63;4784901;30;20047;-78
2021/03/07 10:15:35;;;;;;;14.27;8.57;;;;;;;7.66;49.28;100100.25;4785982;29;20027;-78
2021/03/07 10:18:02;;;;;;;11.95;8.25;;;;;;;7.78;48.64;100099.47;4768311;30;20035;-78
2021/03/07 10:20:36;;;;;;;13.90;7.40;;;;;;;7.91;49.11;100098.41;4769219;30;20046;-77
2021/03/07 10:23:02;;;;;;;8.00;6.78;;;;;;;8.01;47.42;100093.31;4768832;30;20676;-76
2021/03/07 10:25:33;;;;;;;8.75;5.45;;;;;;;8.09;46.58;100084.97;4768535;30;20074;-77
2021/03/07 10:28:04;;;;;;;10.10;6.70;;;;;;;8.17;46.00;100083.78;4767363;30;20067;-77
2021/03/07 10:30:34;;;;;;;11.02;5.90;;;;;;;8.13;45.32;100075.47;4779119;30;20086;-78
2021/03/07 10:33:27;;;;;;;8.20;5.38;;;;;;;8.16;45.45;100077.63;4785784;30;20563;-77
2021/03/07 10:36:05;;;;;;;8.82;4.97;;;;;;;8.18;43.72;100078.22;4785525;30;20114;-76
2021/03/07 10:38:42;;;;;;;12.10;5.72;;;;;;;8.14;44.30;100055.78;4784759;29;20036;-75
2021/03/07 10:41:19;;;;;;;9.20;5.97;;;;;;;8.22;43.58;100062.56;4773391;30;20430;-74
2021/03/07 10:43:56;;;;;;;14.13;6.72;;;;;;;8.24;44.38;100054.34;4788864;29;20137;-76
2021/03/07 10:46:27;;;;;;;8.88;6.82;;;;;;;8.29;43.26;100044.59;4803061;29;20026;-75
2021/03/07 10:48:57;;;;;;;9.60;6.43;;;;;;;8.37;44.69;100046.09;4803526;29;20072;-75
2021/03/07 10:51:23;;;;;;;9.55;6.72;;;;;;;8.43;43.47;100039.00;4802818;29;20031;-76
2021/03/07 10:53:49;;;;;;;8.85;6.07;;;;;;;8.54;43.38;100035.50;4803794;29;20042;-75
2021/03/07 10:56:15;;;;;;;9.80;6.60;;;;;;;8.64;42.88;100026.88;4802844;29;20068;-75
2021/03/07 10:58:40;;;;;;;8.68;7.30;;;;;;;8.63;42.64;100019.97;4802106;29;20038;-75
2021/03/07 11:01:06;;;;;;;15.80;8.13;;;;;;;8.64;43.75;100018.88;4787430;29;20039;-77
2021/03/07 11:03:32;;;;;;;10.25;6.97;;;;;;;8.64;43.47;100005.56;4802441;29;20070;-78
2021/03/07 11:05:58;;;;;;;16.10;8.75;;;;;;;8.71;44.25;100006.22;4799680;29;20039;-78
2021/03/07 11:08:23;;;;;;;9.30;7.35;;;;;;;8.76;44.22;100000.16;4784045;30;20482;-77
2021/03/07 11:10:49;;;;;;;12.23;7.72;;;;;;;8.83;44.42;99992.81;4801647;29;20038;-77
2021/03/07 11:13:14;;;;;;;11.00;8.50;;;;;;;8.85;43.76;99981.91;4803918;29;20575;-77
2021/03/07 11:15:40;;;;;;;10.57;6.75;;;;;;;8.90;43.48;99984.66;4803603;29;20034;-77
2021/03/07 11:18:05;;;;;;;10.63;8.00;;;;;;;8.95;43.38;99979.44;4802256;29;20038;-77
2021/03/07 11:20:31;;;;;;;12.55;8.25;;;;;;;9.00;43.29;99971.50;4801110;29;20039;-76
2021/03/07 11:22:56;;;;;;;10.60;7.13;;;;;;;9.04;42.73;99966.50;4785608;29;20040;-77
2021/03/07 11:25:22;;;;;;;11.23;6.90;;;;;;;9.09;42.53;99967.38;4802766;29;20031;-77
2021/03/07 11:27:48;;;;;;;9.77;6.97;;;;;;;9.12;42.34;99948.19;4803240;29;20042;-75
2021/03/07 11:30:14;;;;;;;10.18;7.55;;;;;;;9.20;41.78;99951.50;4792229;29;20070;-79
2021/03/07 11:32:40;;;;;;;11.00;6.93;;;;;;;9.21;41.62;99947.81;4801393;29;20039;-78
2021/03/07 11:35:07;;;;;;;9.65;6.88;;;;;;;9.21;41.16;99945.13;4801879;29;20031;-81
2021/03/07 11:37:32;;;;;;;14.18;7.75;;;;;;;9.17;41.74;99938.66;4786133;29;20039;-76
2021/03/07 11:39:58;;;;;;;9.95;7.05;;;;;;;9.16;41.08;99931.72;4796734;29;20567;-79
2021/03/07 11:42:23;;;;;;;7.63;5.80;;;;;;;9.19;41.03;99928.53;4803541;29;20050;-77
2021/03/07 11:44:48;;;;;;;10.90;7.68;;;;;;;9.23;41.45;99927.03;4787675;29;20086;-76
2021/03/07 11:47:14;;;;;;;9.98;6.00;;;;;;;9.23;40.97;99919.00;4785778;29;20036;-77
2021/03/07 11:49:43;;;;;;;10.35;6.88;;;;;;;9.24;40.99;99918.75;4799640;29;20103;-78
2021/03/07 11:52:09;;;;;;;7.50;5.75;;;;;;;9.26;41.52;99913.16;4776955;29;20046;-81
2021/03/07 11:54:35;;;;;;;10.32;6.18;;;;;;;9.27;40.85;99904.91;4803893;29;20035;-79
2021/03/07 11:57:00;;;;;;;10.07;5.85;;;;;;;9.30;40.61;99903.59;4804902;29;20061;-81
2021/03/07 11:59:34;;;;;;;13.23;7.95;;;;;;;9.35;41.48;99892.19;4796094;29;20027;-85